UAE508 OMDB-VABB
Flight info
| Callsign | UAE508 |
|---|---|
| Flight time | 2h 25m |
| Altitude | 39000 |
| Route | IVURO DCT LALDO B505 NADSO A777 VAXIM L301 KARKU DCT EXOLU POKON2A |
| Aircraft | B77L/H-SDE1E2E3FGHIJ2J3J4J5M1RWXY/LB1D1 |
Departure
| Time | 2026-05-06 15:57 |
|---|---|
| Airport | Dubai International Airport (OMDB) |
Arrival
| Time | 2026-05-06 18:23 |
|---|---|
| Airport | Chhatrapati Shivaji Maharaj International Airport (VABB) |
| Time | Latitude | Longitude | Altitude | Speed | Heading |
|---|---|---|---|---|---|
| 2026-05-06 15:38 | 25.24430 | 55.37218 | 27 ft | 0 kts | 211° |
| 2026-05-06 15:48 | 25.24443 | 55.37227 | 25 ft | 4 kts | 211° |
| 2026-05-06 15:48 | 25.24466 | 55.37242 | 24 ft | 4 kts | 208° |
| 2026-05-06 15:48 | 25.24490 | 55.37253 | 24 ft | 4 kts | 189° |
| 2026-05-06 15:49 | 25.24516 | 55.37253 | 24 ft | 4 kts | 155° |
| 2026-05-06 15:49 | 25.24532 | 55.37239 | 24 ft | 1 kts | 122° |
| 2026-05-06 15:53 | 25.24520 | 55.37261 | 25 ft | 10 kts | 122° |
| 2026-05-06 15:53 | 25.24455 | 55.37376 | 26 ft | 20 kts | 122° |
| 2026-05-06 15:54 | 25.24381 | 55.37507 | 26 ft | 20 kts | 121° |
| 2026-05-06 15:54 | 25.24308 | 55.37637 | 26 ft | 20 kts | 122° |
| 2026-05-06 15:54 | 25.24266 | 55.37749 | 26 ft | 13 kts | 77° |
| 2026-05-06 15:54 | 25.24329 | 55.37820 | 25 ft | 13 kts | 36° |
| 2026-05-06 15:55 | 25.24406 | 55.37877 | 26 ft | 13 kts | 34° |
| 2026-05-06 15:55 | 25.24482 | 55.37936 | 26 ft | 13 kts | 34° |
| 2026-05-06 15:55 | 25.24560 | 55.37994 | 26 ft | 13 kts | 35° |
| 2026-05-06 15:55 | 25.24637 | 55.38050 | 26 ft | 11 kts | 31° |
| 2026-05-06 15:56 | 25.24695 | 55.38090 | 26 ft | 10 kts | 31° |
| 2026-05-06 15:56 | 25.24761 | 55.38100 | 26 ft | 10 kts | 333° |
| 2026-05-06 15:56 | 25.24795 | 55.38048 | 26 ft | 1 kts | 299° |
| 2026-05-06 15:56 | 25.24802 | 55.38033 | 26 ft | 8 kts | 300° |
| 2026-05-06 15:57 | 25.24915 | 55.37828 | 27 ft | 68 kts | 302° |
| 2026-05-06 15:57 | 25.25303 | 55.37134 | 27 ft | 141 kts | 301° |
| 2026-05-06 15:57 | 25.25693 | 55.36433 | 50 ft | 176 kts | 302° |
| 2026-05-06 15:57 | 25.26600 | 55.34843 | 766 ft | 189 kts | 302° |
| 2026-05-06 15:58 | 25.27071 | 55.34038 | 1253 ft | 186 kts | 302° |
| 2026-05-06 15:58 | 25.27943 | 55.32514 | 2178 ft | 190 kts | 300° |
| 2026-05-06 15:58 | 25.27964 | 55.32475 | 2193 ft | 190 kts | 300° |
| 2026-05-06 15:58 | 25.28206 | 55.32036 | 2404 ft | 193 kts | 300° |
| 2026-05-06 15:59 | 25.28652 | 55.31244 | 2820 ft | 197 kts | 301° |
| 2026-05-06 15:59 | 25.29458 | 55.29983 | 3382 ft | 209 kts | 312° |
| 2026-05-06 15:59 | 25.30821 | 55.29215 | 3593 ft | 238 kts | 356° |
| 2026-05-06 16:00 | 25.32489 | 55.29340 | 4135 ft | 245 kts | 6° |
| 2026-05-06 16:00 | 25.34227 | 55.29475 | 4850 ft | 254 kts | 4° |
| 2026-05-06 16:00 | 25.35986 | 55.29571 | 5777 ft | 251 kts | 4° |
| 2026-05-06 16:00 | 25.37716 | 55.29639 | 6557 ft | 254 kts | 3° |
| 2026-05-06 16:01 | 25.39450 | 55.29918 | 7118 ft | 252 kts | 26° |
| 2026-05-06 16:01 | 25.40866 | 55.31090 | 7556 ft | 265 kts | 51° |
| 2026-05-06 16:01 | 25.42060 | 55.32746 | 7990 ft | 281 kts | 53° |
| 2026-05-06 16:01 | 25.43297 | 55.34457 | 8793 ft | 287 kts | 52° |
| 2026-05-06 16:02 | 25.44551 | 55.36183 | 9706 ft | 289 kts | 52° |
| 2026-05-06 16:02 | 25.45820 | 55.37925 | 10494 ft | 295 kts | 52° |
| 2026-05-06 16:02 | 25.47157 | 55.39759 | 10834 ft | 321 kts | 52° |
| 2026-05-06 16:02 | 25.48622 | 55.41769 | 11036 ft | 350 kts | 52° |
| 2026-05-06 16:03 | 25.50159 | 55.43953 | 11632 ft | 364 kts | 53° |
| 2026-05-06 16:03 | 25.51614 | 55.46222 | 12380 ft | 368 kts | 63° |
| 2026-05-06 16:03 | 25.52374 | 55.48936 | 13004 ft | 371 kts | 83° |
| 2026-05-06 16:03 | 25.52226 | 55.51761 | 13049 ft | 367 kts | 101° |
| 2026-05-06 16:04 | 25.51671 | 55.54565 | 13403 ft | 380 kts | 102° |
| 2026-05-06 16:04 | 25.51109 | 55.57450 | 14244 ft | 385 kts | 102° |
| 2026-05-06 16:04 | 25.50534 | 55.60371 | 15126 ft | 389 kts | 102° |
| 2026-05-06 16:04 | 25.49947 | 55.63308 | 15995 ft | 394 kts | 102° |
| 2026-05-06 16:05 | 25.49346 | 55.66298 | 16745 ft | 402 kts | 102° |
| 2026-05-06 16:05 | 25.48731 | 55.69341 | 17521 ft | 408 kts | 102° |
| 2026-05-06 16:05 | 25.48105 | 55.72437 | 18267 ft | 415 kts | 102° |
| 2026-05-06 16:05 | 25.47470 | 55.75576 | 18944 ft | 421 kts | 103° |
| 2026-05-06 16:06 | 25.46834 | 55.78720 | 19592 ft | 427 kts | 102° |
| 2026-05-06 16:06 | 25.46177 | 55.81962 | 20211 ft | 434 kts | 103° |
| 2026-05-06 16:06 | 25.45515 | 55.85232 | 21018 ft | 436 kts | 103° |
| 2026-05-06 16:06 | 25.44844 | 55.88543 | 21671 ft | 443 kts | 103° |
| 2026-05-06 16:07 | 25.44164 | 55.91893 | 22294 ft | 449 kts | 103° |
| 2026-05-06 16:07 | 25.43473 | 55.95293 | 22956 ft | 454 kts | 103° |
| 2026-05-06 16:07 | 25.42776 | 55.98720 | 23562 ft | 459 kts | 103° |
| 2026-05-06 16:07 | 25.42069 | 56.02187 | 24068 ft | 465 kts | 103° |
| 2026-05-06 16:08 | 25.41353 | 56.05696 | 24560 ft | 470 kts | 103° |
| 2026-05-06 16:08 | 25.40627 | 56.09252 | 24855 ft | 476 kts | 103° |
| 2026-05-06 16:08 | 25.39906 | 56.12777 | 24830 ft | 475 kts | 103° |
| 2026-05-06 16:08 | 25.39178 | 56.16334 | 24829 ft | 474 kts | 103° |
| 2026-05-06 16:09 | 25.38450 | 56.19886 | 24836 ft | 474 kts | 103° |
| 2026-05-06 16:09 | 25.37721 | 56.23437 | 24843 ft | 474 kts | 103° |
| 2026-05-06 16:09 | 25.36989 | 56.27001 | 24842 ft | 475 kts | 103° |
| 2026-05-06 16:09 | 25.36256 | 56.30560 | 24846 ft | 475 kts | 103° |
| 2026-05-06 16:10 | 25.35521 | 56.34129 | 24939 ft | 477 kts | 103° |
| 2026-05-06 16:10 | 25.34781 | 56.37718 | 25474 ft | 481 kts | 103° |
| 2026-05-06 16:10 | 25.34033 | 56.41340 | 26030 ft | 485 kts | 103° |
| 2026-05-06 16:10 | 25.33277 | 56.44994 | 26543 ft | 490 kts | 103° |
| 2026-05-06 16:11 | 25.32513 | 56.48686 | 27024 ft | 495 kts | 103° |
| 2026-05-06 16:11 | 25.31741 | 56.52415 | 27490 ft | 501 kts | 104° |
| 2026-05-06 16:11 | 25.30956 | 56.56193 | 27966 ft | 506 kts | 104° |
| 2026-05-06 16:11 | 25.30088 | 56.59972 | 28467 ft | 509 kts | 108° |
| 2026-05-06 16:12 | 25.28921 | 56.63631 | 28932 ft | 512 kts | 114° |
| 2026-05-06 16:12 | 25.27526 | 56.67274 | 29371 ft | 517 kts | 115° |
| 2026-05-06 16:12 | 25.26097 | 56.70939 | 29804 ft | 522 kts | 115° |
| 2026-05-06 16:12 | 25.24655 | 56.74636 | 30182 ft | 526 kts | 115° |
| 2026-05-06 16:13 | 25.23211 | 56.78367 | 30567 ft | 530 kts | 115° |
| 2026-05-06 16:13 | 25.21770 | 56.82122 | 30954 ft | 532 kts | 115° |
| 2026-05-06 16:13 | 25.20332 | 56.85893 | 31364 ft | 534 kts | 114° |
| 2026-05-06 16:13 | 25.18892 | 56.89681 | 31829 ft | 534 kts | 114° |
| 2026-05-06 16:14 | 25.17458 | 56.93460 | 32344 ft | 533 kts | 115° |
| 2026-05-06 16:14 | 25.16025 | 56.97229 | 32865 ft | 532 kts | 115° |
| 2026-05-06 16:14 | 25.14589 | 57.01002 | 33399 ft | 531 kts | 115° |
| 2026-05-06 16:14 | 25.13159 | 57.04753 | 33928 ft | 529 kts | 115° |
| 2026-05-06 16:15 | 25.11729 | 57.08498 | 34375 ft | 528 kts | 115° |
| 2026-05-06 16:15 | 25.10301 | 57.12231 | 34825 ft | 527 kts | 115° |
| 2026-05-06 16:15 | 25.08889 | 57.15922 | 35256 ft | 526 kts | 115° |
| 2026-05-06 16:15 | 25.07459 | 57.19655 | 35716 ft | 524 kts | 115° |
| 2026-05-06 16:16 | 25.06059 | 57.23307 | 36173 ft | 522 kts | 115° |
| 2026-05-06 16:16 | 25.04646 | 57.26988 | 36624 ft | 520 kts | 115° |
| 2026-05-06 16:16 | 25.03237 | 57.30659 | 37061 ft | 519 kts | 115° |
| 2026-05-06 16:16 | 25.01828 | 57.34325 | 37474 ft | 518 kts | 115° |
| 2026-05-06 16:17 | 25.00424 | 57.37976 | 37890 ft | 516 kts | 115° |
| 2026-05-06 16:17 | 24.99019 | 57.41625 | 38270 ft | 515 kts | 115° |
| 2026-05-06 16:17 | 24.97625 | 57.45242 | 38704 ft | 512 kts | 115° |
| 2026-05-06 16:17 | 24.96232 | 57.48855 | 38858 ft | 514 kts | 115° |
| 2026-05-06 16:18 | 24.93414 | 57.56151 | 38840 ft | 516 kts | 115° |
| 2026-05-06 16:18 | 24.90636 | 57.63336 | 38828 ft | 511 kts | 115° |
| 2026-05-06 16:19 | 24.87853 | 57.70522 | 38834 ft | 509 kts | 115° |
| 2026-05-06 16:19 | 24.85077 | 57.77680 | 38838 ft | 508 kts | 115° |
| 2026-05-06 16:20 | 24.82272 | 57.84829 | 38830 ft | 508 kts | 117° |
| 2026-05-06 16:20 | 24.79227 | 57.91837 | 38838 ft | 507 kts | 118° |
| 2026-05-06 16:21 | 24.76105 | 57.98812 | 38837 ft | 508 kts | 118° |
| 2026-05-06 16:21 | 24.73009 | 58.05814 | 38831 ft | 509 kts | 118° |
| 2026-05-06 16:22 | 24.69933 | 58.12837 | 38834 ft | 509 kts | 118° |
| 2026-05-06 16:22 | 24.66858 | 58.19858 | 38833 ft | 510 kts | 118° |
| 2026-05-06 16:23 | 24.63793 | 58.26840 | 38833 ft | 510 kts | 118° |
| 2026-05-06 16:23 | 24.60702 | 58.33867 | 38836 ft | 511 kts | 118° |
| 2026-05-06 16:24 | 24.57601 | 58.40904 | 38832 ft | 511 kts | 118° |
| 2026-05-06 16:24 | 24.54495 | 58.47944 | 38833 ft | 511 kts | 118° |
| 2026-05-06 16:25 | 24.51391 | 58.54967 | 38833 ft | 511 kts | 118° |
| 2026-05-06 16:25 | 24.48283 | 58.61992 | 38831 ft | 511 kts | 118° |
| 2026-05-06 16:26 | 24.45191 | 58.68976 | 38833 ft | 510 kts | 118° |
| 2026-05-06 16:26 | 24.42085 | 58.75976 | 38826 ft | 509 kts | 118° |
| 2026-05-06 16:27 | 24.38980 | 58.82955 | 38829 ft | 508 kts | 118° |
| 2026-05-06 16:27 | 24.35879 | 58.89922 | 38833 ft | 508 kts | 118° |
| 2026-05-06 16:28 | 24.32776 | 58.96886 | 38829 ft | 507 kts | 118° |
| 2026-05-06 16:28 | 24.29689 | 59.03806 | 38823 ft | 507 kts | 118° |
| 2026-05-06 16:29 | 24.26588 | 59.10743 | 38830 ft | 506 kts | 118° |
| 2026-05-06 16:29 | 24.23488 | 59.17670 | 38832 ft | 506 kts | 118° |
| 2026-05-06 16:30 | 24.20912 | 59.23417 | 38833 ft | 506 kts | 118° |
| 2026-05-06 16:30 | 24.17283 | 59.31503 | 38824 ft | 506 kts | 118° |
| 2026-05-06 16:31 | 24.14172 | 59.38424 | 38827 ft | 506 kts | 118° |
| 2026-05-06 16:31 | 24.11078 | 59.45298 | 38825 ft | 506 kts | 118° |
| 2026-05-06 16:32 | 24.07962 | 59.52208 | 38828 ft | 506 kts | 118° |
| 2026-05-06 16:32 | 24.04844 | 59.59107 | 38827 ft | 506 kts | 118° |
| 2026-05-06 16:33 | 24.01721 | 59.66010 | 38827 ft | 506 kts | 118° |
| 2026-05-06 16:34 | 23.97028 | 59.76366 | 38828 ft | 506 kts | 118° |
| 2026-05-06 16:34 | 23.93899 | 59.83259 | 38827 ft | 506 kts | 118° |
| 2026-05-06 16:35 | 23.90787 | 59.90106 | 38828 ft | 505 kts | 118° |
| 2026-05-06 16:35 | 23.87657 | 59.96981 | 38827 ft | 505 kts | 118° |
| 2026-05-06 16:36 | 23.84520 | 60.03863 | 38828 ft | 505 kts | 118° |
| 2026-05-06 16:36 | 23.81381 | 60.10737 | 38827 ft | 505 kts | 118° |
| 2026-05-06 16:37 | 23.78244 | 60.17599 | 38829 ft | 505 kts | 118° |
| 2026-05-06 16:37 | 23.75095 | 60.24475 | 38827 ft | 505 kts | 118° |
| 2026-05-06 16:38 | 23.71945 | 60.31345 | 38840 ft | 505 kts | 118° |
| 2026-05-06 16:38 | 23.68814 | 60.38162 | 38832 ft | 505 kts | 118° |
| 2026-05-06 16:39 | 23.65663 | 60.45015 | 38838 ft | 505 kts | 118° |
| 2026-05-06 16:39 | 23.62509 | 60.51864 | 38829 ft | 505 kts | 118° |
| 2026-05-06 16:40 | 23.59353 | 60.58707 | 38830 ft | 505 kts | 118° |
| 2026-05-06 16:40 | 23.56191 | 60.65553 | 38838 ft | 505 kts | 118° |
| 2026-05-06 16:41 | 23.53030 | 60.72387 | 38840 ft | 505 kts | 118° |
| 2026-05-06 16:41 | 23.49864 | 60.79223 | 38833 ft | 505 kts | 118° |
| 2026-05-06 16:42 | 23.46716 | 60.86011 | 38834 ft | 505 kts | 118° |
| 2026-05-06 16:42 | 23.43546 | 60.92835 | 38848 ft | 505 kts | 118° |
| 2026-05-06 16:43 | 23.40376 | 60.99653 | 38844 ft | 505 kts | 118° |
| 2026-05-06 16:43 | 23.37201 | 61.06472 | 38843 ft | 505 kts | 118° |
| 2026-05-06 16:44 | 23.34032 | 61.13294 | 38858 ft | 505 kts | 116° |
| 2026-05-06 16:44 | 23.32027 | 61.19261 | 38850 ft | 506 kts | 105° |
| 2026-05-06 16:45 | 23.30676 | 61.28078 | 38865 ft | 506 kts | 95° |
| 2026-05-06 16:45 | 23.30162 | 61.34421 | 38855 ft | 506 kts | 95° |
| 2026-05-06 16:46 | 23.29546 | 61.42055 | 38856 ft | 507 kts | 95° |
| 2026-05-06 16:46 | 23.28887 | 61.49687 | 38862 ft | 507 kts | 96° |
| 2026-05-06 16:47 | 23.28204 | 61.57289 | 38851 ft | 508 kts | 96° |
| 2026-05-06 16:47 | 23.27510 | 61.64931 | 38856 ft | 508 kts | 96° |
| 2026-05-06 16:48 | 23.26813 | 61.72575 | 38853 ft | 508 kts | 96° |
| 2026-05-06 16:48 | 23.26115 | 61.80219 | 38860 ft | 508 kts | 96° |
| 2026-05-06 16:49 | 23.25412 | 61.87875 | 38851 ft | 508 kts | 96° |
| 2026-05-06 16:49 | 23.24706 | 61.95528 | 38851 ft | 508 kts | 96° |
| 2026-05-06 16:50 | 23.23996 | 62.03171 | 38864 ft | 507 kts | 96° |
| 2026-05-06 16:50 | 23.23285 | 62.10798 | 38860 ft | 507 kts | 96° |
| 2026-05-06 16:51 | 23.22570 | 62.18419 | 38857 ft | 506 kts | 96° |
| 2026-05-06 16:51 | 23.21856 | 62.25984 | 38859 ft | 506 kts | 96° |
| 2026-05-06 16:52 | 23.21136 | 62.33585 | 38859 ft | 506 kts | 96° |
| 2026-05-06 16:52 | 23.20411 | 62.41193 | 38850 ft | 506 kts | 96° |
| 2026-05-06 16:53 | 23.19683 | 62.48799 | 38862 ft | 506 kts | 96° |
| 2026-05-06 16:53 | 23.18951 | 62.56399 | 38865 ft | 506 kts | 96° |
| 2026-05-06 16:54 | 23.18215 | 62.64010 | 38851 ft | 506 kts | 96° |
| 2026-05-06 16:54 | 23.17474 | 62.71626 | 38855 ft | 507 kts | 96° |
| 2026-05-06 16:55 | 23.16729 | 62.79244 | 38859 ft | 507 kts | 96° |
| 2026-05-06 16:55 | 23.15981 | 62.86862 | 38852 ft | 507 kts | 96° |
| 2026-05-06 16:56 | 23.15228 | 62.94495 | 38849 ft | 508 kts | 96° |
| 2026-05-06 16:56 | 23.14471 | 63.02124 | 38860 ft | 508 kts | 96° |
| 2026-05-06 16:57 | 23.13710 | 63.09760 | 38865 ft | 508 kts | 96° |
| 2026-05-06 16:57 | 23.12946 | 63.17381 | 38865 ft | 508 kts | 96° |
| 2026-05-06 16:58 | 23.12178 | 63.25006 | 38858 ft | 508 kts | 96° |
| 2026-05-06 16:58 | 23.11407 | 63.32627 | 38863 ft | 508 kts | 96° |
| 2026-05-06 16:59 | 23.10631 | 63.40258 | 38857 ft | 508 kts | 96° |
| 2026-05-06 16:59 | 23.09852 | 63.47883 | 38861 ft | 508 kts | 96° |
| 2026-05-06 17:00 | 23.09070 | 63.55510 | 38845 ft | 508 kts | 96° |
| 2026-05-06 17:00 | 23.08286 | 63.63104 | 38856 ft | 508 kts | 96° |
| 2026-05-06 17:01 | 23.07496 | 63.70732 | 38845 ft | 508 kts | 96° |
| 2026-05-06 17:01 | 23.06702 | 63.78368 | 38850 ft | 509 kts | 96° |
| 2026-05-06 17:02 | 23.05664 | 63.85961 | 38855 ft | 508 kts | 103° |
| 2026-05-06 17:02 | 23.03479 | 63.93251 | 38859 ft | 507 kts | 113° |
| 2026-05-06 17:03 | 23.00759 | 64.00323 | 38844 ft | 508 kts | 114° |
| 2026-05-06 17:03 | 22.98033 | 64.07397 | 38846 ft | 508 kts | 113° |
| 2026-05-06 17:04 | 22.95335 | 64.14491 | 38863 ft | 509 kts | 113° |
| 2026-05-06 17:04 | 22.92649 | 64.21596 | 38851 ft | 509 kts | 113° |
| 2026-05-06 17:05 | 22.89961 | 64.28701 | 38850 ft | 509 kts | 113° |
| 2026-05-06 17:05 | 22.87267 | 64.35809 | 38850 ft | 510 kts | 113° |
| 2026-05-06 17:06 | 22.84584 | 64.42869 | 38847 ft | 510 kts | 113° |
| 2026-05-06 17:06 | 22.81879 | 64.49975 | 38848 ft | 510 kts | 113° |
| 2026-05-06 17:07 | 22.79174 | 64.57072 | 38854 ft | 510 kts | 113° |
| 2026-05-06 17:07 | 22.76464 | 64.64170 | 38843 ft | 509 kts | 113° |
| 2026-05-06 17:08 | 22.73752 | 64.71262 | 38843 ft | 509 kts | 113° |
| 2026-05-06 17:08 | 22.71041 | 64.78342 | 38846 ft | 509 kts | 113° |
| 2026-05-06 17:09 | 22.68327 | 64.85418 | 38840 ft | 509 kts | 113° |
| 2026-05-06 17:09 | 22.65608 | 64.92496 | 38848 ft | 509 kts | 113° |
| 2026-05-06 17:10 | 22.62888 | 64.99565 | 38838 ft | 509 kts | 113° |
| 2026-05-06 17:10 | 22.60164 | 65.06635 | 38846 ft | 509 kts | 113° |
| 2026-05-06 17:11 | 22.57439 | 65.13696 | 38848 ft | 509 kts | 113° |
| 2026-05-06 17:11 | 22.54711 | 65.20756 | 38840 ft | 509 kts | 113° |
| 2026-05-06 17:12 | 22.51979 | 65.27813 | 38836 ft | 508 kts | 113° |
| 2026-05-06 17:12 | 22.49244 | 65.34868 | 38836 ft | 509 kts | 113° |
| 2026-05-06 17:13 | 22.46506 | 65.41919 | 38843 ft | 509 kts | 113° |
| 2026-05-06 17:13 | 22.43762 | 65.48975 | 38835 ft | 509 kts | 113° |
| 2026-05-06 17:14 | 22.41015 | 65.56029 | 38848 ft | 509 kts | 113° |
| 2026-05-06 17:14 | 22.38269 | 65.63071 | 38839 ft | 509 kts | 113° |
| 2026-05-06 17:15 | 22.35519 | 65.70110 | 38845 ft | 508 kts | 113° |
| 2026-05-06 17:15 | 22.32766 | 65.77146 | 38846 ft | 508 kts | 113° |
| 2026-05-06 17:16 | 22.30010 | 65.84182 | 38844 ft | 508 kts | 113° |
| 2026-05-06 17:16 | 22.27253 | 65.91209 | 38847 ft | 508 kts | 114° |
| 2026-05-06 17:17 | 22.24491 | 65.98237 | 38832 ft | 509 kts | 114° |
| 2026-05-06 17:17 | 22.21742 | 66.05223 | 38837 ft | 509 kts | 114° |
| 2026-05-06 17:18 | 22.18974 | 66.12247 | 38842 ft | 509 kts | 114° |
| 2026-05-06 17:18 | 22.16202 | 66.19269 | 38837 ft | 508 kts | 114° |
| 2026-05-06 17:19 | 22.13433 | 66.26275 | 38842 ft | 507 kts | 114° |
| 2026-05-06 17:19 | 22.10664 | 66.33271 | 38842 ft | 507 kts | 114° |
| 2026-05-06 17:20 | 22.07891 | 66.40267 | 38840 ft | 507 kts | 114° |
| 2026-05-06 17:20 | 22.05118 | 66.47254 | 38834 ft | 507 kts | 114° |
| 2026-05-06 17:21 | 22.02336 | 66.54247 | 38840 ft | 507 kts | 114° |
| 2026-05-06 17:21 | 21.99553 | 66.61234 | 38830 ft | 508 kts | 114° |
| 2026-05-06 17:22 | 21.96766 | 66.68222 | 38842 ft | 508 kts | 114° |
| 2026-05-06 17:22 | 21.93976 | 66.75211 | 38835 ft | 508 kts | 114° |
| 2026-05-06 17:23 | 21.91183 | 66.82196 | 38840 ft | 508 kts | 114° |
| 2026-05-06 17:23 | 21.88403 | 66.89139 | 38839 ft | 508 kts | 114° |
| 2026-05-06 17:24 | 21.85605 | 66.96118 | 38831 ft | 508 kts | 114° |
| 2026-05-06 17:24 | 21.82802 | 67.03099 | 38840 ft | 508 kts | 114° |
| 2026-05-06 17:25 | 21.79995 | 67.10078 | 38841 ft | 508 kts | 114° |
| 2026-05-06 17:25 | 21.77185 | 67.17057 | 38839 ft | 509 kts | 114° |
| 2026-05-06 17:26 | 21.74370 | 67.24037 | 38839 ft | 508 kts | 114° |
| 2026-05-06 17:26 | 21.71556 | 67.31003 | 38840 ft | 508 kts | 114° |
| 2026-05-06 17:27 | 21.68740 | 67.37968 | 38847 ft | 507 kts | 114° |
| 2026-05-06 17:27 | 21.65926 | 67.44913 | 38843 ft | 507 kts | 114° |
| 2026-05-06 17:28 | 21.63110 | 67.51858 | 38847 ft | 506 kts | 114° |
| 2026-05-06 17:28 | 21.60290 | 67.58801 | 38845 ft | 507 kts | 114° |
| 2026-05-06 17:29 | 21.57464 | 67.65749 | 38843 ft | 508 kts | 114° |
| 2026-05-06 17:29 | 21.54630 | 67.72706 | 38846 ft | 508 kts | 114° |
| 2026-05-06 17:30 | 21.51793 | 67.79661 | 38843 ft | 508 kts | 114° |
| 2026-05-06 17:30 | 21.49438 | 67.85428 | 38835 ft | 507 kts | 114° |
| 2026-05-06 17:31 | 21.46603 | 67.92360 | 38837 ft | 506 kts | 114° |
| 2026-05-06 17:31 | 21.43767 | 67.99285 | 38832 ft | 505 kts | 114° |
| 2026-05-06 17:32 | 21.40938 | 68.06186 | 38835 ft | 505 kts | 114° |
| 2026-05-06 17:32 | 21.38106 | 68.13082 | 38832 ft | 504 kts | 114° |
| 2026-05-06 17:33 | 21.35292 | 68.19925 | 38834 ft | 504 kts | 114° |
| 2026-05-06 17:33 | 21.32452 | 68.26822 | 38836 ft | 505 kts | 114° |
| 2026-05-06 17:34 | 21.29607 | 68.33722 | 38841 ft | 505 kts | 114° |
| 2026-05-06 17:34 | 21.26763 | 68.40609 | 38836 ft | 505 kts | 114° |
| 2026-05-06 17:35 | 21.23937 | 68.47444 | 38841 ft | 504 kts | 114° |
| 2026-05-06 17:35 | 21.21089 | 68.54323 | 38835 ft | 504 kts | 114° |
| 2026-05-06 17:36 | 21.16815 | 68.64624 | 38838 ft | 504 kts | 115° |
| 2026-05-06 17:36 | 21.13959 | 68.71488 | 38839 ft | 505 kts | 115° |
| 2026-05-06 17:37 | 21.11094 | 68.78378 | 38836 ft | 505 kts | 114° |
| 2026-05-06 17:37 | 21.08241 | 68.85242 | 38841 ft | 505 kts | 114° |
| 2026-05-06 17:38 | 21.05378 | 68.92106 | 38836 ft | 504 kts | 114° |
| 2026-05-06 17:38 | 21.02514 | 68.98962 | 38839 ft | 504 kts | 114° |
| 2026-05-06 17:39 | 20.99671 | 69.05764 | 38829 ft | 503 kts | 114° |
| 2026-05-06 17:39 | 20.96910 | 69.12638 | 38837 ft | 503 kts | 109° |
| 2026-05-06 17:40 | 20.94747 | 69.19749 | 38832 ft | 502 kts | 108° |
| 2026-05-06 17:40 | 20.92650 | 69.26883 | 38835 ft | 503 kts | 108° |
| 2026-05-06 17:41 | 20.90527 | 69.34012 | 38830 ft | 503 kts | 108° |
| 2026-05-06 17:41 | 20.88374 | 69.41143 | 38824 ft | 504 kts | 108° |
| 2026-05-06 17:42 | 20.86208 | 69.48280 | 38824 ft | 504 kts | 108° |
| 2026-05-06 17:42 | 20.84038 | 69.55421 | 38827 ft | 505 kts | 108° |
| 2026-05-06 17:43 | 20.81863 | 69.62572 | 38828 ft | 506 kts | 108° |
| 2026-05-06 17:43 | 20.79680 | 69.69737 | 38823 ft | 507 kts | 108° |
| 2026-05-06 17:44 | 20.77494 | 69.76905 | 38816 ft | 507 kts | 108° |
| 2026-05-06 17:44 | 20.75303 | 69.84073 | 38828 ft | 507 kts | 108° |
| 2026-05-06 17:45 | 20.73120 | 69.91207 | 38818 ft | 508 kts | 108° |
| 2026-05-06 17:45 | 20.70922 | 69.98373 | 38830 ft | 508 kts | 108° |
| 2026-05-06 17:46 | 20.68719 | 70.05548 | 38814 ft | 508 kts | 108° |
| 2026-05-06 17:46 | 20.66514 | 70.12717 | 38804 ft | 508 kts | 108° |
| 2026-05-06 17:47 | 20.64304 | 70.19888 | 38799 ft | 508 kts | 108° |
| 2026-05-06 17:47 | 20.62094 | 70.27052 | 38804 ft | 508 kts | 108° |
| 2026-05-06 17:48 | 20.59896 | 70.34160 | 38795 ft | 507 kts | 108° |
| 2026-05-06 17:48 | 20.57687 | 70.41295 | 38788 ft | 506 kts | 108° |
| 2026-05-06 17:49 | 20.55478 | 70.48421 | 38791 ft | 505 kts | 108° |
| 2026-05-06 17:49 | 20.53268 | 70.55535 | 38779 ft | 505 kts | 109° |
| 2026-05-06 17:50 | 20.51053 | 70.62653 | 38786 ft | 505 kts | 109° |
| 2026-05-06 17:50 | 20.48835 | 70.69773 | 38786 ft | 506 kts | 109° |
| 2026-05-06 17:51 | 20.46611 | 70.76899 | 38783 ft | 506 kts | 109° |
| 2026-05-06 17:51 | 20.44396 | 70.83986 | 38791 ft | 507 kts | 109° |
| 2026-05-06 17:52 | 20.42160 | 70.91126 | 38797 ft | 508 kts | 109° |
| 2026-05-06 17:52 | 20.39918 | 70.98277 | 38790 ft | 508 kts | 109° |
| 2026-05-06 17:53 | 20.37676 | 71.05416 | 38773 ft | 508 kts | 109° |
| 2026-05-06 17:53 | 20.35428 | 71.12562 | 38778 ft | 507 kts | 109° |
| 2026-05-06 17:54 | 20.33186 | 71.19677 | 38785 ft | 505 kts | 109° |
| 2026-05-06 17:54 | 20.32074 | 71.23203 | 38594 ft | 497 kts | 109° |
| 2026-05-06 17:54 | 20.30992 | 71.26632 | 38116 ft | 493 kts | 109° |
| 2026-05-06 17:55 | 20.29894 | 71.30106 | 37300 ft | 496 kts | 109° |
| 2026-05-06 17:55 | 20.28794 | 71.33585 | 36586 ft | 496 kts | 109° |
| 2026-05-06 17:55 | 20.27693 | 71.37064 | 36021 ft | 494 kts | 109° |
| 2026-05-06 17:55 | 20.26599 | 71.40519 | 35561 ft | 489 kts | 108° |
| 2026-05-06 17:56 | 20.25517 | 71.43935 | 35162 ft | 484 kts | 108° |
| 2026-05-06 17:56 | 20.24443 | 71.47325 | 34729 ft | 480 kts | 108° |
| 2026-05-06 17:56 | 20.23379 | 71.50677 | 34263 ft | 476 kts | 108° |
| 2026-05-06 17:56 | 20.22210 | 71.53964 | 33793 ft | 473 kts | 115° |
| 2026-05-06 17:57 | 20.20662 | 71.57039 | 33252 ft | 471 kts | 122° |
| 2026-05-06 17:57 | 20.18822 | 71.59909 | 32723 ft | 468 kts | 128° |
| 2026-05-06 17:57 | 20.16700 | 71.62521 | 32194 ft | 465 kts | 133° |
| 2026-05-06 17:57 | 20.14496 | 71.65031 | 31710 ft | 462 kts | 134° |
| 2026-05-06 17:58 | 20.12299 | 71.67507 | 31327 ft | 457 kts | 134° |
| 2026-05-06 17:58 | 20.10129 | 71.69957 | 30888 ft | 453 kts | 134° |
| 2026-05-06 17:58 | 20.08007 | 71.72369 | 30433 ft | 452 kts | 133° |
| 2026-05-06 17:58 | 20.05870 | 71.74811 | 29927 ft | 450 kts | 133° |
| 2026-05-06 17:59 | 20.03743 | 71.77251 | 29402 ft | 449 kts | 133° |
| 2026-05-06 17:59 | 20.01625 | 71.79686 | 28919 ft | 446 kts | 133° |
| 2026-05-06 17:59 | 19.99529 | 71.82097 | 28470 ft | 442 kts | 133° |
| 2026-05-06 17:59 | 19.97449 | 71.84488 | 28033 ft | 439 kts | 133° |
| 2026-05-06 18:00 | 19.95382 | 71.86863 | 27584 ft | 436 kts | 133° |
| 2026-05-06 18:00 | 19.93329 | 71.89220 | 27117 ft | 434 kts | 133° |
| 2026-05-06 18:00 | 19.91284 | 71.91567 | 26681 ft | 432 kts | 133° |
| 2026-05-06 18:00 | 19.89241 | 71.93910 | 26221 ft | 430 kts | 133° |
| 2026-05-06 18:01 | 19.87211 | 71.96237 | 25785 ft | 428 kts | 133° |
| 2026-05-06 18:01 | 19.85189 | 71.98554 | 25427 ft | 424 kts | 133° |
| 2026-05-06 18:01 | 19.83222 | 72.00808 | 25103 ft | 419 kts | 133° |
| 2026-05-06 18:01 | 19.81247 | 72.03070 | 24718 ft | 417 kts | 133° |
| 2026-05-06 18:02 | 19.79275 | 72.05327 | 24314 ft | 415 kts | 133° |
| 2026-05-06 18:02 | 19.77318 | 72.07564 | 24044 ft | 410 kts | 133° |
| 2026-05-06 18:02 | 19.75309 | 72.09673 | 23847 ft | 402 kts | 137° |
| 2026-05-06 18:02 | 19.73247 | 72.11646 | 23631 ft | 395 kts | 139° |
| 2026-05-06 18:03 | 19.71183 | 72.13561 | 23293 ft | 393 kts | 139° |
| 2026-05-06 18:03 | 19.69129 | 72.15461 | 22887 ft | 391 kts | 139° |
| 2026-05-06 18:03 | 19.67087 | 72.17360 | 22525 ft | 388 kts | 139° |
| 2026-05-06 18:03 | 19.65071 | 72.19249 | 22192 ft | 385 kts | 139° |
| 2026-05-06 18:04 | 19.63084 | 72.21123 | 21864 ft | 381 kts | 138° |
| 2026-05-06 18:04 | 19.61111 | 72.22989 | 21544 ft | 378 kts | 138° |
| 2026-05-06 18:04 | 19.59159 | 72.24839 | 21219 ft | 375 kts | 138° |
| 2026-05-06 18:04 | 19.57243 | 72.26698 | 20865 ft | 371 kts | 134° |
| 2026-05-06 18:05 | 19.55644 | 72.28783 | 20523 ft | 368 kts | 122° |
| 2026-05-06 18:05 | 19.54414 | 72.31142 | 20179 ft | 365 kts | 112° |
| 2026-05-06 18:05 | 19.53425 | 72.33607 | 19878 ft | 361 kts | 111° |
| 2026-05-06 18:05 | 19.52466 | 72.36057 | 19600 ft | 358 kts | 111° |
| 2026-05-06 18:06 | 19.51517 | 72.38486 | 19276 ft | 356 kts | 111° |
| 2026-05-06 18:06 | 19.50569 | 72.40905 | 18932 ft | 355 kts | 110° |
| 2026-05-06 18:06 | 19.49622 | 72.43309 | 18670 ft | 352 kts | 111° |
| 2026-05-06 18:06 | 19.48683 | 72.45687 | 18451 ft | 346 kts | 111° |
| 2026-05-06 18:07 | 19.47753 | 72.48032 | 18167 ft | 344 kts | 112° |
| 2026-05-06 18:07 | 19.46829 | 72.50357 | 17851 ft | 341 kts | 111° |
| 2026-05-06 18:07 | 19.45910 | 72.52668 | 17497 ft | 340 kts | 111° |
| 2026-05-06 18:07 | 19.44993 | 72.54972 | 17180 ft | 337 kts | 112° |
| 2026-05-06 18:08 | 19.44081 | 72.57258 | 16824 ft | 337 kts | 111° |
| 2026-05-06 18:08 | 19.43171 | 72.59540 | 16449 ft | 336 kts | 111° |
| 2026-05-06 18:08 | 19.42263 | 72.61815 | 16177 ft | 333 kts | 111° |
| 2026-05-06 18:08 | 19.41366 | 72.64064 | 15926 ft | 329 kts | 112° |
| 2026-05-06 18:09 | 19.40480 | 72.66281 | 15620 ft | 325 kts | 112° |
| 2026-05-06 18:09 | 19.39613 | 72.68451 | 15206 ft | 324 kts | 111° |
| 2026-05-06 18:09 | 19.38738 | 72.70641 | 14816 ft | 322 kts | 111° |
| 2026-05-06 18:09 | 19.37868 | 72.72817 | 14473 ft | 319 kts | 112° |
| 2026-05-06 18:10 | 19.37006 | 72.74970 | 14114 ft | 316 kts | 112° |
| 2026-05-06 18:10 | 19.36156 | 72.77093 | 13711 ft | 306 kts | 111° |
| 2026-05-06 18:10 | 19.35333 | 72.79150 | 12833 ft | 302 kts | 112° |
| 2026-05-06 18:10 | 19.34516 | 72.81193 | 11859 ft | 302 kts | 113° |
| 2026-05-06 18:11 | 19.33696 | 72.83243 | 10905 ft | 302 kts | 114° |
| 2026-05-06 18:11 | 19.33155 | 72.84594 | 10378 ft | 299 kts | 115° |
| 2026-05-06 18:11 | 19.32093 | 72.87248 | 9516 ft | 286 kts | 115° |
| 2026-05-06 18:11 | 19.31330 | 72.89150 | 8867 ft | 276 kts | 114° |
| 2026-05-06 18:12 | 19.30587 | 72.90997 | 8216 ft | 269 kts | 114° |
| 2026-05-06 18:12 | 19.29861 | 72.92804 | 7517 ft | 264 kts | 113° |
| 2026-05-06 18:12 | 19.29138 | 72.94601 | 6833 ft | 269 kts | 112° |
| 2026-05-06 18:12 | 19.28410 | 72.96418 | 6483 ft | 267 kts | 114° |
| 2026-05-06 18:13 | 19.27683 | 72.98227 | 6143 ft | 265 kts | 114° |
| 2026-05-06 18:13 | 19.26966 | 73.00010 | 5837 ft | 262 kts | 114° |
| 2026-05-06 18:13 | 19.26253 | 73.01784 | 5454 ft | 261 kts | 114° |
| 2026-05-06 18:13 | 19.25551 | 73.03530 | 5096 ft | 261 kts | 113° |
| 2026-05-06 18:14 | 19.24835 | 73.05311 | 4750 ft | 259 kts | 113° |
| 2026-05-06 18:14 | 19.24142 | 73.07033 | 4413 ft | 256 kts | 113° |
| 2026-05-06 18:14 | 19.23447 | 73.08756 | 4472 ft | 258 kts | 113° |
| 2026-05-06 18:14 | 19.22722 | 73.10529 | 4491 ft | 264 kts | 117° |
| 2026-05-06 18:15 | 19.21570 | 73.11991 | 4494 ft | 260 kts | 147° |
| 2026-05-06 18:15 | 19.19887 | 73.12617 | 4407 ft | 260 kts | 177° |
| 2026-05-06 18:15 | 19.18107 | 73.12336 | 4165 ft | 260 kts | 203° |
| 2026-05-06 18:15 | 19.16524 | 73.11429 | 3964 ft | 257 kts | 212° |
| 2026-05-06 18:16 | 19.14999 | 73.10468 | 3744 ft | 260 kts | 212° |
| 2026-05-06 18:16 | 19.13442 | 73.09497 | 3561 ft | 257 kts | 211° |
| 2026-05-06 18:16 | 19.11920 | 73.08554 | 3300 ft | 251 kts | 212° |
| 2026-05-06 18:16 | 19.10433 | 73.07632 | 3065 ft | 243 kts | 213° |
| 2026-05-06 18:17 | 19.09255 | 73.06499 | 2923 ft | 219 kts | 248° |
| 2026-05-06 18:17 | 19.09048 | 73.05056 | 2924 ft | 190 kts | 276° |
| 2026-05-06 18:17 | 19.09074 | 73.03675 | 2914 ft | 187 kts | 274° |
| 2026-05-06 18:17 | 19.09062 | 73.02304 | 2901 ft | 188 kts | 272° |
| 2026-05-06 18:18 | 19.09047 | 73.00924 | 2903 ft | 183 kts | 274° |
| 2026-05-06 18:18 | 19.09035 | 72.99600 | 2910 ft | 180 kts | 274° |
| 2026-05-06 18:18 | 19.09025 | 72.98728 | 2898 ft | 179 kts | 274° |
| 2026-05-06 18:18 | 19.09013 | 72.97408 | 2924 ft | 181 kts | 274° |
| 2026-05-06 18:19 | 19.08997 | 72.96059 | 2904 ft | 185 kts | 271° |
| 2026-05-06 18:19 | 19.08979 | 72.94715 | 2908 ft | 183 kts | 273° |
| 2026-05-06 18:19 | 19.08961 | 72.93379 | 2913 ft | 181 kts | 273° |
| 2026-05-06 18:19 | 19.08944 | 72.92028 | 2917 ft | 182 kts | 273° |
| 2026-05-06 18:20 | 19.08919 | 72.90746 | 2889 ft | 168 kts | 269° |
| 2026-05-06 18:20 | 19.08481 | 72.89653 | 2869 ft | 167 kts | 227° |
| 2026-05-06 18:20 | 19.07414 | 72.89177 | 2866 ft | 170 kts | 181° |
| 2026-05-06 18:20 | 19.06323 | 72.89555 | 2511 ft | 165 kts | 137° |
| 2026-05-06 18:21 | 19.05785 | 72.90568 | 1934 ft | 160 kts | 91° |
| 2026-05-06 18:21 | 19.06073 | 72.91631 | 1308 ft | 147 kts | 39° |
| 2026-05-06 18:21 | 19.06974 | 72.91985 | 1049 ft | 151 kts | 352° |
| 2026-05-06 18:21 | 19.07831 | 72.91473 | 812 ft | 141 kts | 307° |
| 2026-05-06 18:22 | 19.08263 | 72.90565 | 645 ft | 142 kts | 281° |
| 2026-05-06 18:22 | 19.08299 | 72.89556 | 769 ft | 135 kts | 282° |
| 2026-05-06 18:22 | 19.08542 | 72.88619 | 732 ft | 126 kts | 290° |
| 2026-05-06 18:22 | 19.08828 | 72.87759 | 203 ft | 124 kts | 280° |
| 2026-05-06 18:23 | 19.08858 | 72.86880 | 61 ft | 115 kts | 274° |
| 2026-05-06 18:23 | 19.08865 | 72.86140 | 48 ft | 80 kts | 268° |
| 2026-05-06 18:23 | 19.08860 | 72.85754 | 53 ft | 34 kts | 273° |
| 2026-05-06 18:23 | 19.08904 | 72.85599 | 49 ft | 12 kts | 294° |
| 2026-05-06 18:24 | 19.08940 | 72.85516 | 48 ft | 12 kts | 295° |
| 2026-05-06 18:24 | 19.09009 | 72.85500 | 54 ft | 12 kts | 48° |
| 2026-05-06 18:24 | 19.09026 | 72.85591 | 48 ft | 13 kts | 89° |
| 2026-05-06 18:24 | 19.09027 | 72.85691 | 53 ft | 14 kts | 90° |
| 2026-05-06 18:25 | 19.09028 | 72.85796 | 53 ft | 14 kts | 89° |
| 2026-05-06 18:25 | 19.09031 | 72.85898 | 53 ft | 14 kts | 88° |
| 2026-05-06 18:25 | 19.09035 | 72.86003 | 53 ft | 14 kts | 88° |
| 2026-05-06 18:25 | 19.09034 | 72.86111 | 53 ft | 15 kts | 90° |
| 2026-05-06 18:26 | 19.09035 | 72.86221 | 53 ft | 15 kts | 89° |
| 2026-05-06 18:26 | 19.09037 | 72.86340 | 53 ft | 17 kts | 89° |
| 2026-05-06 18:26 | 19.09038 | 72.86462 | 52 ft | 17 kts | 89° |
| 2026-05-06 18:26 | 19.09040 | 72.86584 | 48 ft | 17 kts | 89° |
| 2026-05-06 18:27 | 19.09042 | 72.86707 | 55 ft | 17 kts | 89° |
| 2026-05-06 18:27 | 19.09044 | 72.86830 | 55 ft | 17 kts | 89° |
| 2026-05-06 18:27 | 19.09045 | 72.86952 | 54 ft | 17 kts | 89° |
| 2026-05-06 18:27 | 19.09047 | 72.87075 | 51 ft | 17 kts | 89° |
| 2026-05-06 18:28 | 19.09049 | 72.87197 | 50 ft | 17 kts | 89° |
| 2026-05-06 18:28 | 19.09120 | 72.87263 | 50 ft | 16 kts | 4° |
| 2026-05-06 18:28 | 19.09219 | 72.87249 | 50 ft | 10 kts | 320° |
| 2026-05-06 18:28 | 19.09235 | 72.87177 | 52 ft | 9 kts | 278° |
| 2026-05-06 18:29 | 19.09278 | 72.87148 | 51 ft | 7 kts | 354° |
| 2026-05-06 18:29 | 19.09312 | 72.87146 | 53 ft | 3 kts | 358° |
| 2026-05-06 18:29 | 19.09313 | 72.87146 | 53 ft | 0 kts | 358° |